sensor_id;sensor_type;location;lat;lon;timestamp;pressure;altitude;pressure_sealevel;temperature
35582;BMP180;21687;48.900;9.188;2024-02-21T00:02:09;99431.00;;;6.30
35582;BMP180;21687;48.900;9.188;2024-02-21T00:04:36;99422.00;;;6.20
35582;BMP180;21687;48.900;9.188;2024-02-21T00:07:04;99431.00;;;6.30
35582;BMP180;21687;48.900;9.188;2024-02-21T00:09:31;99434.00;;;6.20
35582;BMP180;21687;48.900;9.188;2024-02-21T00:11:57;99420.00;;;6.30
35582;BMP180;21687;48.900;9.188;2024-02-21T00:14:24;99425.00;;;6.30
35582;BMP180;21687;48.900;9.188;2024-02-21T00:16:51;99417.00;;;6.40
35582;BMP180;21687;48.900;9.188;2024-02-21T00:19:17;99419.00;;;6.50
35582;BMP180;21687;48.900;9.188;2024-02-21T00:21:43;99406.00;;;6.40
35582;BMP180;21687;48.900;9.188;2024-02-21T00:24:09;99412.00;;;6.50
35582;BMP180;21687;48.900;9.188;2024-02-21T00:26:35;99404.00;;;6.50
35582;BMP180;21687;48.900;9.188;2024-02-21T00:29:02;99390.00;;;6.50
35582;BMP180;21687;48.900;9.188;2024-02-21T00:31:28;99381.00;;;6.50
35582;BMP180;21687;48.900;9.188;2024-02-21T00:33:54;99384.00;;;6.60
35582;BMP180;21687;48.900;9.188;2024-02-21T00:36:21;99379.00;;;6.50
35582;BMP180;21687;48.900;9.188;2024-02-21T00:38:47;99380.00;;;6.50
35582;BMP180;21687;48.900;9.188;2024-02-21T00:41:13;99373.00;;;6.50
35582;BMP180;21687;48.900;9.188;2024-02-21T00:43:40;99375.00;;;6.50
35582;BMP180;21687;48.900;9.188;2024-02-21T00:46:07;99366.00;;;6.50
35582;BMP180;21687;48.900;9.188;2024-02-21T00:48:34;99362.00;;;6.50
35582;BMP180;21687;48.900;9.188;2024-02-21T00:51:00;99369.00;;;6.50
35582;BMP180;21687;48.900;9.188;2024-02-21T00:53:26;99372.00;;;6.50
35582;BMP180;21687;48.900;9.188;2024-02-21T00:55:53;99366.00;;;6.50
35582;BMP180;21687;48.900;9.188;2024-02-21T00:58:19;99362.00;;;6.50
35582;BMP180;21687;48.900;9.188;2024-02-21T01:00:46;99369.00;;;6.50
35582;BMP180;21687;48.900;9.188;2024-02-21T01:03:12;99361.00;;;6.50
35582;BMP180;21687;48.900;9.188;2024-02-21T01:05:38;99356.00;;;6.50
35582;BMP180;21687;48.900;9.188;2024-02-21T01:08:05;99347.00;;;6.50
35582;BMP180;21687;48.900;9.188;2024-02-21T01:10:31;99351.00;;;6.50
35582;BMP180;21687;48.900;9.188;2024-02-21T01:12:58;99347.00;;;6.50
35582;BMP180;21687;48.900;9.188;2024-02-21T01:15:25;99343.00;;;6.40
35582;BMP180;21687;48.900;9.188;2024-02-21T01:17:51;99346.00;;;6.40
35582;BMP180;21687;48.900;9.188;2024-02-21T01:20:21;99341.00;;;6.40
35582;BMP180;21687;48.900;9.188;2024-02-21T01:22:47;99336.00;;;6.30
35582;BMP180;21687;48.900;9.188;2024-02-21T01:25:14;99337.00;;;6.30
35582;BMP180;21687;48.900;9.188;2024-02-21T01:27:40;99328.00;;;6.30
35582;BMP180;21687;48.900;9.188;2024-02-21T01:30:07;99329.00;;;6.30
35582;BMP180;21687;48.900;9.188;2024-02-21T01:32:33;99329.00;;;6.30
35582;BMP180;21687;48.900;9.188;2024-02-21T01:35:00;99318.00;;;6.30
35582;BMP180;21687;48.900;9.188;2024-02-21T01:37:26;99312.00;;;6.30
35582;BMP180;21687;48.900;9.188;2024-02-21T01:39:52;99315.00;;;6.30
35582;BMP180;21687;48.900;9.188;2024-02-21T01:42:19;99304.00;;;6.30
35582;BMP180;21687;48.900;9.188;2024-02-21T01:44:45;99308.00;;;6.30
35582;BMP180;21687;48.900;9.188;2024-02-21T01:47:11;99289.00;;;6.40
35582;BMP180;21687;48.900;9.188;2024-02-21T01:49:40;99289.00;;;6.40
35582;BMP180;21687;48.900;9.188;2024-02-21T01:52:07;99287.00;;;6.50
35582;BMP180;21687;48.900;9.188;2024-02-21T01:54:34;99280.00;;;6.40
35582;BMP180;21687;48.900;9.188;2024-02-21T01:57:00;99279.00;;;6.40
35582;BMP180;21687;48.900;9.188;2024-02-21T01:59:27;99280.00;;;6.50
35582;BMP180;21687;48.900;9.188;2024-02-21T02:01:56;99272.00;;;6.50
35582;BMP180;21687;48.900;9.188;2024-02-21T02:04:23;99270.00;;;6.50
35582;BMP180;21687;48.900;9.188;2024-02-21T02:06:51;99266.00;;;6.50
35582;BMP180;21687;48.900;9.188;2024-02-21T02:09:19;99261.00;;;6.60
35582;BMP180;21687;48.900;9.188;2024-02-21T02:11:45;99264.00;;;6.60
35582;BMP180;21687;48.900;9.188;2024-02-21T02:14:12;99259.00;;;6.60
35582;BMP180;21687;48.900;9.188;2024-02-21T02:16:38;99252.00;;;6.70
35582;BMP180;21687;48.900;9.188;2024-02-21T02:19:04;99249.00;;;6.70
35582;BMP180;21687;48.900;9.188;2024-02-21T02:21:35;99249.00;;;6.80
35582;BMP180;21687;48.900;9.188;2024-02-21T02:24:06;99221.00;;;6.80
35582;BMP180;21687;48.900;9.188;2024-02-21T02:26:32;99230.00;;;6.80
35582;BMP180;21687;48.900;9.188;2024-02-21T02:29:00;99228.00;;;6.90
35582;BMP180;21687;48.900;9.188;2024-02-21T02:31:27;99229.00;;;6.90
35582;BMP180;21687;48.900;9.188;2024-02-21T02:33:53;99223.00;;;6.90
35582;BMP180;21687;48.900;9.188;2024-02-21T02:36:20;99222.00;;;6.90
35582;BMP180;21687;48.900;9.188;2024-02-21T02:38:46;99217.00;;;6.80
35582;BMP180;21687;48.900;9.188;2024-02-21T02:41:12;99206.00;;;6.90
35582;BMP180;21687;48.900;9.188;2024-02-21T02:43:38;99189.00;;;6.90
35582;BMP180;21687;48.900;9.188;2024-02-21T02:46:05;99195.00;;;6.80
35582;BMP180;21687;48.900;9.188;2024-02-21T02:48:31;99194.00;;;6.70
35582;BMP180;21687;48.900;9.188;2024-02-21T02:50:57;99210.00;;;6.60
35582;BMP180;21687;48.900;9.188;2024-02-21T02:53:24;99223.00;;;6.50
35582;BMP180;21687;48.900;9.188;2024-02-21T02:55:50;99225.00;;;6.40
35582;BMP180;21687;48.900;9.188;2024-02-21T02:58:16;99219.00;;;6.30
35582;BMP180;21687;48.900;9.188;2024-02-21T03:00:43;99219.00;;;6.20
35582;BMP180;21687;48.900;9.188;2024-02-21T03:03:09;99213.00;;;6.20
35582;BMP180;21687;48.900;9.188;2024-02-21T03:05:35;99225.00;;;6.10
35582;BMP180;21687;48.900;9.188;2024-02-21T03:08:02;99220.00;;;6.00
35582;BMP180;21687;48.900;9.188;2024-02-21T03:10:32;99224.00;;;6.00
35582;BMP180;21687;48.900;9.188;2024-02-21T03:12:59;99209.00;;;6.00
35582;BMP180;21687;48.900;9.188;2024-02-21T03:15:25;99202.00;;;5.90
35582;BMP180;21687;48.900;9.188;2024-02-21T03:17:52;99203.00;;;5.80
35582;BMP180;21687;48.900;9.188;2024-02-21T03:20:19;99201.00;;;5.80
35582;BMP180;21687;48.900;9.188;2024-02-21T03:22:45;99201.00;;;5.70
35582;BMP180;21687;48.900;9.188;2024-02-21T03:25:12;99196.00;;;5.70
35582;BMP180;21687;48.900;9.188;2024-02-21T03:27:40;99186.00;;;5.70
35582;BMP180;21687;48.900;9.188;2024-02-21T03:30:07;99176.00;;;5.60
35582;BMP180;21687;48.900;9.188;2024-02-21T03:32:33;99174.00;;;5.60
35582;BMP180;21687;48.900;9.188;2024-02-21T03:35:00;99177.00;;;5.60
35582;BMP180;21687;48.900;9.188;2024-02-21T03:37:26;99182.00;;;5.60
35582;BMP180;21687;48.900;9.188;2024-02-21T03:39:52;99171.00;;;5.60
35582;BMP180;21687;48.900;9.188;2024-02-21T03:42:19;99166.00;;;5.60
35582;BMP180;21687;48.900;9.188;2024-02-21T03:44:45;99168.00;;;5.60
35582;BMP180;21687;48.900;9.188;2024-02-21T03:47:11;99166.00;;;5.50
35582;BMP180;21687;48.900;9.188;2024-02-21T03:49:38;99170.00;;;5.50
35582;BMP180;21687;48.900;9.188;2024-02-21T03:52:05;99166.00;;;5.60
35582;BMP180;21687;48.900;9.188;2024-02-21T03:54:31;99161.00;;;5.60
35582;BMP180;21687;48.900;9.188;2024-02-21T03:56:57;99147.00;;;5.50
35582;BMP180;21687;48.900;9.188;2024-02-21T03:59:24;99149.00;;;5.50
35582;BMP180;21687;48.900;9.188;2024-02-21T04:01:53;99150.00;;;5.50
35582;BMP180;21687;48.900;9.188;2024-02-21T04:04:20;99154.00;;;5.50
35582;BMP180;21687;48.900;9.188;2024-02-21T04:06:49;99143.00;;;5.50
35582;BMP180;21687;48.900;9.188;2024-02-21T04:09:16;99140.00;;;5.50
35582;BMP180;21687;48.900;9.188;2024-02-21T04:11:42;99135.00;;;5.40
35582;BMP180;21687;48.900;9.188;2024-02-21T04:14:09;99138.00;;;5.50
35582;BMP180;21687;48.900;9.188;2024-02-21T04:16:37;99134.00;;;5.50
35582;BMP180;21687;48.900;9.188;2024-02-21T04:19:04;99121.00;;;5.50
35582;BMP180;21687;48.900;9.188;2024-02-21T04:21:30;99105.00;;;5.50
35582;BMP180;21687;48.900;9.188;2024-02-21T04:23:56;99116.00;;;5.40
35582;BMP180;21687;48.900;9.188;2024-02-21T04:26:23;99128.00;;;5.20
35582;BMP180;21687;48.900;9.188;2024-02-21T04:28:49;99127.00;;;5.20
35582;BMP180;21687;48.900;9.188;2024-02-21T04:31:15;99128.00;;;5.00
35582;BMP180;21687;48.900;9.188;2024-02-21T04:33:42;99125.00;;;5.00
35582;BMP180;21687;48.900;9.188;2024-02-21T04:36:08;99106.00;;;4.90
35582;BMP180;21687;48.900;9.188;2024-02-21T04:38:35;99113.00;;;4.80
35582;BMP180;21687;48.900;9.188;2024-02-21T04:41:01;99105.00;;;4.70
35582;BMP180;21687;48.900;9.188;2024-02-21T04:43:28;99108.00;;;4.70
35582;BMP180;21687;48.900;9.188;2024-02-21T04:45:54;99110.00;;;4.70
35582;BMP180;21687;48.900;9.188;2024-02-21T04:48:20;99117.00;;;4.60
35582;BMP180;21687;48.900;9.188;2024-02-21T04:50:47;99114.00;;;4.50
35582;BMP180;21687;48.900;9.188;2024-02-21T04:53:13;99106.00;;;4.50
35582;BMP180;21687;48.900;9.188;2024-02-21T04:55:39;99113.00;;;4.50
35582;BMP180;21687;48.900;9.188;2024-02-21T04:58:06;99112.00;;;4.40
35582;BMP180;21687;48.900;9.188;2024-02-21T05:00:32;99119.00;;;4.30
35582;BMP180;21687;48.900;9.188;2024-02-21T05:02:59;99115.00;;;4.30
35582;BMP180;21687;48.900;9.188;2024-02-21T05:05:26;99113.00;;;4.30
35582;BMP180;21687;48.900;9.188;2024-02-21T05:07:52;99106.00;;;4.20
35582;BMP180;21687;48.900;9.188;2024-02-21T05:10:18;99101.00;;;4.30
35582;BMP180;21687;48.900;9.188;2024-02-21T05:12:45;99100.00;;;4.20
35582;BMP180;21687;48.900;9.188;2024-02-21T05:15:11;99099.00;;;4.10
35582;BMP180;21687;48.900;9.188;2024-02-21T05:17:38;99105.00;;;4.20
35582;BMP180;21687;48.900;9.188;2024-02-21T05:20:05;99098.00;;;4.10
35582;BMP180;21687;48.900;9.188;2024-02-21T05:22:32;99089.00;;;4.10
35582;BMP180;21687;48.900;9.188;2024-02-21T05:24:58;99072.00;;;4.20
35582;BMP180;21687;48.900;9.188;2024-02-21T05:27:24;99064.00;;;4.10
35582;BMP180;21687;48.900;9.188;2024-02-21T05:29:51;99063.00;;;4.20
35582;BMP180;21687;48.900;9.188;2024-02-21T05:32:17;99055.00;;;4.20
35582;BMP180;21687;48.900;9.188;2024-02-21T05:34:43;99057.00;;;4.10
35582;BMP180;21687;48.900;9.188;2024-02-21T05:37:09;99042.00;;;4.10
35582;BMP180;21687;48.900;9.188;2024-02-21T05:39:36;99050.00;;;4.00
35582;BMP180;21687;48.900;9.188;2024-02-21T05:42:02;99051.00;;;4.00
35582;BMP180;21687;48.900;9.188;2024-02-21T05:44:28;99047.00;;;4.10
35582;BMP180;21687;48.900;9.188;2024-02-21T05:46:55;99047.00;;;4.20
35582;BMP180;21687;48.900;9.188;2024-02-21T05:49:21;99043.00;;;4.10
35582;BMP180;21687;48.900;9.188;2024-02-21T05:51:47;99038.00;;;4.10
35582;BMP180;21687;48.900;9.188;2024-02-21T05:54:14;99034.00;;;4.00
35582;BMP180;21687;48.900;9.188;2024-02-21T05:56:45;99034.00;;;4.10
35582;BMP180;21687;48.900;9.188;2024-02-21T05:59:12;99031.00;;;4.10
35582;BMP180;21687;48.900;9.188;2024-02-21T06:01:39;99037.00;;;4.10
35582;BMP180;21687;48.900;9.188;2024-02-21T06:04:06;99039.00;;;4.10
35582;BMP180;21687;48.900;9.188;2024-02-21T06:06:32;99029.00;;;4.10
35582;BMP180;21687;48.900;9.188;2024-02-21T06:08:59;99039.00;;;4.00
35582;BMP180;21687;48.900;9.188;2024-02-21T06:11:26;99040.00;;;4.00
35582;BMP180;21687;48.900;9.188;2024-02-21T06:13:52;99047.00;;;3.90
35582;BMP180;21687;48.900;9.188;2024-02-21T06:16:19;99027.00;;;3.80
35582;BMP180;21687;48.900;9.188;2024-02-21T06:18:45;99034.00;;;3.80
35582;BMP180;21687;48.900;9.188;2024-02-21T06:21:11;99039.00;;;3.90
35582;BMP180;21687;48.900;9.188;2024-02-21T06:23:38;99037.00;;;3.90
35582;BMP180;21687;48.900;9.188;2024-02-21T06:26:04;99038.00;;;3.80
35582;BMP180;21687;48.900;9.188;2024-02-21T06:28:31;99041.00;;;3.90
35582;BMP180;21687;48.900;9.188;2024-02-21T06:30:57;99038.00;;;3.90
35582;BMP180;21687;48.900;9.188;2024-02-21T06:33:23;99048.00;;;3.90
35582;BMP180;21687;48.900;9.188;2024-02-21T06:35:51;99052.00;;;3.90
35582;BMP180;21687;48.900;9.188;2024-02-21T06:38:19;99052.00;;;4.00
35582;BMP180;21687;48.900;9.188;2024-02-21T06:40:46;99042.00;;;3.90
35582;BMP180;21687;48.900;9.188;2024-02-21T06:43:18;99039.00;;;3.80
35582;BMP180;21687;48.900;9.188;2024-02-21T06:45:45;99032.00;;;3.80
35582;BMP180;21687;48.900;9.188;2024-02-21T06:48:13;99048.00;;;3.90
35582;BMP180;21687;48.900;9.188;2024-02-21T06:50:40;99039.00;;;4.00
35582;BMP180;21687;48.900;9.188;2024-02-21T06:53:06;99029.00;;;4.10
35582;BMP180;21687;48.900;9.188;2024-02-21T06:55:33;99025.00;;;4.20
35582;BMP180;21687;48.900;9.188;2024-02-21T06:58:00;99017.00;;;4.10
35582;BMP180;21687;48.900;9.188;2024-02-21T07:00:29;99021.00;;;4.20
35582;BMP180;21687;48.900;9.188;2024-02-21T07:02:55;99012.00;;;4.20
35582;BMP180;21687;48.900;9.188;2024-02-21T07:05:22;99013.00;;;4.20
35582;BMP180;21687;48.900;9.188;2024-02-21T07:07:48;99010.00;;;4.20
35582;BMP180;21687;48.900;9.188;2024-02-21T07:10:14;99014.00;;;4.30
35582;BMP180;21687;48.900;9.188;2024-02-21T07:12:41;99008.00;;;4.40
35582;BMP180;21687;48.900;9.188;2024-02-21T07:15:09;99001.00;;;4.50
35582;BMP180;21687;48.900;9.188;2024-02-21T07:17:35;99006.00;;;4.50
35582;BMP180;21687;48.900;9.188;2024-02-21T07:20:02;99001.00;;;4.50
35582;BMP180;21687;48.900;9.188;2024-02-21T07:22:29;98988.00;;;4.60
35582;BMP180;21687;48.900;9.188;2024-02-21T07:24:56;98992.00;;;4.80
35582;BMP180;21687;48.900;9.188;2024-02-21T07:27:22;99004.00;;;4.80
35582;BMP180;21687;48.900;9.188;2024-02-21T07:29:48;99003.00;;;5.00
35582;BMP180;21687;48.900;9.188;2024-02-21T07:32:15;98998.00;;;5.10
35582;BMP180;21687;48.900;9.188;2024-02-21T07:34:46;99007.00;;;5.30
35582;BMP180;21687;48.900;9.188;2024-02-21T07:37:12;99008.00;;;5.40
35582;BMP180;21687;48.900;9.188;2024-02-21T07:39:39;99003.00;;;5.50
35582;BMP180;21687;48.900;9.188;2024-02-21T07:42:05;98994.00;;;5.60
35582;BMP180;21687;48.900;9.188;2024-02-21T07:44:33;98996.00;;;5.80
35582;BMP180;21687;48.900;9.188;2024-02-21T07:47:00;98986.00;;;5.90
35582;BMP180;21687;48.900;9.188;2024-02-21T07:49:26;98975.00;;;6.00
35582;BMP180;21687;48.900;9.188;2024-02-21T07:51:53;98964.00;;;6.20
35582;BMP180;21687;48.900;9.188;2024-02-21T07:54:19;98961.00;;;6.30
35582;BMP180;21687;48.900;9.188;2024-02-21T07:56:45;98957.00;;;6.40
35582;BMP180;21687;48.900;9.188;2024-02-21T07:59:13;98965.00;;;6.50
35582;BMP180;21687;48.900;9.188;2024-02-21T08:01:41;98968.00;;;6.70
35582;BMP180;21687;48.900;9.188;2024-02-21T08:04:07;98965.00;;;6.80
35582;BMP180;21687;48.900;9.188;2024-02-21T08:06:33;98960.00;;;7.00
35582;BMP180;21687;48.900;9.188;2024-02-21T08:09:00;98965.00;;;7.00
35582;BMP180;21687;48.900;9.188;2024-02-21T08:11:26;98976.00;;;7.20
35582;BMP180;21687;48.900;9.188;2024-02-21T08:13:53;98970.00;;;7.40
35582;BMP180;21687;48.900;9.188;2024-02-21T08:16:19;98965.00;;;7.50
35582;BMP180;21687;48.900;9.188;2024-02-21T08:18:45;98969.00;;;7.70
35582;BMP180;21687;48.900;9.188;2024-02-21T08:21:12;98961.00;;;7.80
35582;BMP180;21687;48.900;9.188;2024-02-21T08:23:38;98955.00;;;8.00
35582;BMP180;21687;48.900;9.188;2024-02-21T08:26:04;98963.00;;;8.10
35582;BMP180;21687;48.900;9.188;2024-02-21T08:28:31;98952.00;;;8.30
35582;BMP180;21687;48.900;9.188;2024-02-21T08:30:57;98951.00;;;8.40
35582;BMP180;21687;48.900;9.188;2024-02-21T08:33:24;98950.00;;;8.60
35582;BMP180;21687;48.900;9.188;2024-02-21T08:35:54;98956.00;;;8.70
35582;BMP180;21687;48.900;9.188;2024-02-21T08:38:20;98951.00;;;8.90
35582;BMP180;21687;48.900;9.188;2024-02-21T08:40:46;98943.00;;;8.90
35582;BMP180;21687;48.900;9.188;2024-02-21T08:43:12;98943.00;;;9.00
35582;BMP180;21687;48.900;9.188;2024-02-21T08:45:39;98933.00;;;9.20
35582;BMP180;21687;48.900;9.188;2024-02-21T08:48:05;98937.00;;;9.30
35582;BMP180;21687;48.900;9.188;2024-02-21T08:50:32;98937.00;;;9.40
35582;BMP180;21687;48.900;9.188;2024-02-21T08:52:58;98937.00;;;9.50
35582;BMP180;21687;48.900;9.188;2024-02-21T08:55:24;98937.00;;;9.60
35582;BMP180;21687;48.900;9.188;2024-02-21T08:57:51;98937.00;;;9.40
35582;BMP180;21687;48.900;9.188;2024-02-21T09:00:17;98929.00;;;9.60
35582;BMP180;21687;48.900;9.188;2024-02-21T09:02:44;98929.00;;;9.70
35582;BMP180;21687;48.900;9.188;2024-02-21T09:05:10;98926.00;;;9.70
35582;BMP180;21687;48.900;9.188;2024-02-21T09:07:37;98923.00;;;9.90
35582;BMP180;21687;48.900;9.188;2024-02-21T09:10:03;98919.00;;;10.10
35582;BMP180;21687;48.900;9.188;2024-02-21T09:12:30;98923.00;;;10.10
35582;BMP180;21687;48.900;9.188;2024-02-21T09:14:56;98924.00;;;10.20
35582;BMP180;21687;48.900;9.188;2024-02-21T09:17:22;98923.00;;;10.20
35582;BMP180;21687;48.900;9.188;2024-02-21T09:19:49;98924.00;;;10.20
35582;BMP180;21687;48.900;9.188;2024-02-21T09:22:15;98919.00;;;10.20
35582;BMP180;21687;48.900;9.188;2024-02-21T09:24:41;98916.00;;;10.30
35582;BMP180;21687;48.900;9.188;2024-02-21T09:27:08;98909.00;;;10.40
35582;BMP180;21687;48.900;9.188;2024-02-21T09:29:34;98906.00;;;10.50
35582;BMP180;21687;48.900;9.188;2024-02-21T09:32:00;98904.00;;;10.40
35582;BMP180;21687;48.900;9.188;2024-02-21T09:34:29;98906.00;;;10.30
35582;BMP180;21687;48.900;9.188;2024-02-21T09:36:56;98895.00;;;10.30
35582;BMP180;21687;48.900;9.188;2024-02-21T09:39:22;98905.00;;;10.30
35582;BMP180;21687;48.900;9.188;2024-02-21T09:41:56;98904.00;;;10.40
35582;BMP180;21687;48.900;9.188;2024-02-21T09:44:26;98900.00;;;10.60
35582;BMP180;21687;48.900;9.188;2024-02-21T09:47:03;98897.00;;;10.60
35582;BMP180;21687;48.900;9.188;2024-02-21T09:49:34;98897.00;;;10.80
35582;BMP180;21687;48.900;9.188;2024-02-21T09:52:05;98889.00;;;10.90
35582;BMP180;21687;48.900;9.188;2024-02-21T09:54:34;98892.00;;;10.70
35582;BMP180;21687;48.900;9.188;2024-02-21T09:57:01;98884.00;;;10.70
35582;BMP180;21687;48.900;9.188;2024-02-21T09:59:30;98884.00;;;10.80
35582;BMP180;21687;48.900;9.188;2024-02-21T10:01:56;98886.00;;;10.80
35582;BMP180;21687;48.900;9.188;2024-02-21T10:04:24;98882.00;;;11.00
35582;BMP180;21687;48.900;9.188;2024-02-21T10:06:50;98876.00;;;11.00
35582;BMP180;21687;48.900;9.188;2024-02-21T10:09:27;98873.00;;;11.10
35582;BMP180;21687;48.900;9.188;2024-02-21T10:11:54;98864.00;;;11.10
35582;BMP180;21687;48.900;9.188;2024-02-21T10:14:21;98859.00;;;11.20
35582;BMP180;21687;48.900;9.188;2024-02-21T10:16:57;98862.00;;;11.30
35582;BMP180;21687;48.900;9.188;2024-02-21T10:19:27;98864.00;;;11.30
35582;BMP180;21687;48.900;9.188;2024-02-21T10:22:09;98859.00;;;11.40
35582;BMP180;21687;48.900;9.188;2024-02-21T10:24:36;98852.00;;;11.50
35582;BMP180;21687;48.900;9.188;2024-02-21T10:27:08;98849.00;;;11.60
35582;BMP180;21687;48.900;9.188;2024-02-21T10:29:35;98847.00;;;11.60
35582;BMP180;21687;48.900;9.188;2024-02-21T10:32:11;98845.00;;;11.50
35582;BMP180;21687;48.900;9.188;2024-02-21T10:34:40;98843.00;;;11.50
35582;BMP180;21687;48.900;9.188;2024-02-21T10:37:08;98830.00;;;11.60
35582;BMP180;21687;48.900;9.188;2024-02-21T10:39:39;98837.00;;;11.70
35582;BMP180;21687;48.900;9.188;2024-02-21T10:42:05;98829.00;;;11.80
35582;BMP180;21687;48.900;9.188;2024-02-21T10:44:38;98827.00;;;11.80
35582;BMP180;21687;48.900;9.188;2024-02-21T10:47:09;98825.00;;;11.90
35582;BMP180;21687;48.900;9.188;2024-02-21T10:49:43;98824.00;;;11.90
35582;BMP180;21687;48.900;9.188;2024-02-21T10:52:32;98817.00;;;11.90
35582;BMP180;21687;48.900;9.188;2024-02-21T10:55:08;98808.00;;;12.20
35582;BMP180;21687;48.900;9.188;2024-02-21T10:57:35;98806.00;;;12.40
35582;BMP180;21687;48.900;9.188;2024-02-21T11:00:05;98802.00;;;12.30
35582;BMP180;21687;48.900;9.188;2024-02-21T11:02:34;98788.00;;;12.30
35582;BMP180;21687;48.900;9.188;2024-02-21T11:05:03;98786.00;;;12.40
35582;BMP180;21687;48.900;9.188;2024-02-21T11:07:32;98786.00;;;12.20
35582;BMP180;21687;48.900;9.188;2024-02-21T11:09:59;98784.00;;;12.50
35582;BMP180;21687;48.900;9.188;2024-02-21T11:12:26;98776.00;;;12.50
35582;BMP180;21687;48.900;9.188;2024-02-21T11:15:03;98770.00;;;12.60
35582;BMP180;21687;48.900;9.188;2024-02-21T11:17:30;98758.00;;;12.40
35582;BMP180;21687;48.900;9.188;2024-02-21T11:19:56;98758.00;;;12.60
35582;BMP180;21687;48.900;9.188;2024-02-21T11:22:23;98758.00;;;12.70
35582;BMP180;21687;48.900;9.188;2024-02-21T11:24:50;98753.00;;;12.70
35582;BMP180;21687;48.900;9.188;2024-02-21T11:27:20;98752.00;;;12.80
35582;BMP180;21687;48.900;9.188;2024-02-21T11:29:49;98737.00;;;12.90
35582;BMP180;21687;48.900;9.188;2024-02-21T11:32:20;98736.00;;;13.10
35582;BMP180;21687;48.900;9.188;2024-02-21T11:34:59;98730.00;;;13.20
35582;BMP180;21687;48.900;9.188;2024-02-21T11:37:30;98726.00;;;13.00
35582;BMP180;21687;48.900;9.188;2024-02-21T11:40:00;98721.00;;;13.10
35582;BMP180;21687;48.900;9.188;2024-02-21T11:42:30;98718.00;;;13.20
35582;BMP180;21687;48.900;9.188;2024-02-21T11:45:00;98717.00;;;13.20
35582;BMP180;21687;48.900;9.188;2024-02-21T11:47:29;98713.00;;;13.20
35582;BMP180;21687;48.900;9.188;2024-02-21T11:49:55;98707.00;;;13.10
35582;BMP180;21687;48.900;9.188;2024-02-21T11:52:23;98707.00;;;13.20
35582;BMP180;21687;48.900;9.188;2024-02-21T11:54:51;98692.00;;;13.30
35582;BMP180;21687;48.900;9.188;2024-02-21T11:57:18;98685.00;;;13.30
35582;BMP180;21687;48.900;9.188;2024-02-21T11:59:45;98686.00;;;13.10
35582;BMP180;21687;48.900;9.188;2024-02-21T12:02:13;98681.00;;;13.10
35582;BMP180;21687;48.900;9.188;2024-02-21T12:04:40;98680.00;;;13.10
35582;BMP180;21687;48.900;9.188;2024-02-21T12:07:06;98677.00;;;13.10
35582;BMP180;21687;48.900;9.188;2024-02-21T12:13:06;98671.00;;;13.30
35582;BMP180;21687;48.900;9.188;2024-02-21T12:15:33;98671.00;;;13.20
35582;BMP180;21687;48.900;9.188;2024-02-21T12:18:00;98652.00;;;13.30
35582;BMP180;21687;48.900;9.188;2024-02-21T12:20:26;98647.00;;;13.20
35582;BMP180;21687;48.900;9.188;2024-02-21T12:22:53;98635.00;;;13.50
35582;BMP180;21687;48.900;9.188;2024-02-21T12:25:22;98627.00;;;13.60
35582;BMP180;21687;48.900;9.188;2024-02-21T12:27:54;98641.00;;;13.60
35582;BMP180;21687;48.900;9.188;2024-02-21T12:30:22;98630.00;;;13.40
35582;BMP180;21687;48.900;9.188;2024-02-21T12:32:49;98629.00;;;13.40
35582;BMP180;21687;48.900;9.188;2024-02-21T12:35:18;98610.00;;;13.40
35582;BMP180;21687;48.900;9.188;2024-02-21T12:37:45;98602.00;;;13.60
35582;BMP180;21687;48.900;9.188;2024-02-21T12:40:11;98606.00;;;13.40
35582;BMP180;21687;48.900;9.188;2024-02-21T12:42:39;98595.00;;;13.50
35582;BMP180;21687;48.900;9.188;2024-02-21T12:45:05;98603.00;;;13.40
35582;BMP180;21687;48.900;9.188;2024-02-21T12:47:32;98595.00;;;13.30
35582;BMP180;21687;48.900;9.188;2024-02-21T12:49:58;98583.00;;;13.50
35582;BMP180;21687;48.900;9.188;2024-02-21T12:52:24;98586.00;;;13.60
35582;BMP180;21687;48.900;9.188;2024-02-21T12:54:51;98572.00;;;13.70
35582;BMP180;21687;48.900;9.188;2024-02-21T12:57:17;98567.00;;;13.70
35582;BMP180;21687;48.900;9.188;2024-02-21T12:59:44;98559.00;;;13.70
35582;BMP180;21687;48.900;9.188;2024-02-21T13:02:10;98564.00;;;13.70
35582;BMP180;21687;48.900;9.188;2024-02-21T13:04:36;98553.00;;;13.80
35582;BMP180;21687;48.900;9.188;2024-02-21T13:07:06;98551.00;;;13.80
35582;BMP180;21687;48.900;9.188;2024-02-21T13:09:33;98550.00;;;13.70
35582;BMP180;21687;48.900;9.188;2024-02-21T13:11:59;98530.00;;;13.80
35582;BMP180;21687;48.900;9.188;2024-02-21T13:14:26;98544.00;;;13.80
35582;BMP180;21687;48.900;9.188;2024-02-21T13:16:52;98538.00;;;13.90
35582;BMP180;21687;48.900;9.188;2024-02-21T13:19:18;98522.00;;;13.80
35582;BMP180;21687;48.900;9.188;2024-02-21T13:21:45;98518.00;;;14.00
35582;BMP180;21687;48.900;9.188;2024-02-21T13:24:11;98519.00;;;14.10
35582;BMP180;21687;48.900;9.188;2024-02-21T13:26:37;98514.00;;;14.00
35582;BMP180;21687;48.900;9.188;2024-02-21T13:29:03;98500.00;;;14.10
35582;BMP180;21687;48.900;9.188;2024-02-21T13:31:30;98488.00;;;14.20
35582;BMP180;21687;48.900;9.188;2024-02-21T13:33:56;98488.00;;;14.20
35582;BMP180;21687;48.900;9.188;2024-02-21T13:36:22;98473.00;;;14.10
35582;BMP180;21687;48.900;9.188;2024-02-21T13:38:49;98464.00;;;14.00
35582;BMP180;21687;48.900;9.188;2024-02-21T13:41:17;98465.00;;;13.80
35582;BMP180;21687;48.900;9.188;2024-02-21T13:43:43;98464.00;;;13.60
35582;BMP180;21687;48.900;9.188;2024-02-21T13:46:12;98466.00;;;13.40
35582;BMP180;21687;48.900;9.188;2024-02-21T13:48:38;98461.00;;;12.90
35582;BMP180;21687;48.900;9.188;2024-02-21T13:51:05;98455.00;;;12.70
35582;BMP180;21687;48.900;9.188;2024-02-21T13:53:31;98443.00;;;12.70
35582;BMP180;21687;48.900;9.188;2024-02-21T13:55:58;98440.00;;;12.60
35582;BMP180;21687;48.900;9.188;2024-02-21T13:58:24;98436.00;;;12.40
35582;BMP180;21687;48.900;9.188;2024-02-21T14:00:52;98446.00;;;12.40
35582;BMP180;21687;48.900;9.188;2024-02-21T14:03:18;98442.00;;;12.50
35582;BMP180;21687;48.900;9.188;2024-02-21T14:05:46;98440.00;;;12.60
35582;BMP180;21687;48.900;9.188;2024-02-21T14:08:14;98431.00;;;12.60
35582;BMP180;21687;48.900;9.188;2024-02-21T14:10:41;98429.00;;;12.70
35582;BMP180;21687;48.900;9.188;2024-02-21T14:13:07;98429.00;;;12.70
35582;BMP180;21687;48.900;9.188;2024-02-21T14:15:33;98420.00;;;12.80
35582;BMP180;21687;48.900;9.188;2024-02-21T14:17:59;98422.00;;;12.80
35582;BMP180;21687;48.900;9.188;2024-02-21T14:20:26;98429.00;;;12.70